Time;durP1;ratioP1;P1;durP2;ratioP2;P2;SDS_P1;SDS_P2;PMS_P1;PMS_P2;Temp;Humidity;BMP_temperature;BMP_pressure;BME280_temperature;BME280_humidity;BME280_pressure;Samples;Min_cycle;Max_cycle;Signal;HPM_P1;HPM_P2
2021/05/11 00:00:32;;;;;;;2.30;1.42;;;17.40;99.90;;;;;;5080687;28;20043;-80
2021/05/11 00:02:58;;;;;;;2.38;1.40;;;17.40;99.90;;;;;;5086382;28;20030;-80
2021/05/11 00:05:27;;;;;;;3.00;1.40;;;17.40;99.90;;;;;;5084277;28;20025;-79
2021/05/11 00:07:54;;;;;;;5.63;1.50;;;17.50;99.90;;;;;;5086133;28;20032;-80
2021/05/11 00:10:20;;;;;;;2.17;1.55;;;17.50;99.90;;;;;;5082622;28;20024;-79
2021/05/11 00:12:45;;;;;;;1.83;1.45;;;17.50;99.90;;;;;;5085224;28;20478;-80
2021/05/11 00:15:11;;;;;;;5.03;1.70;;;17.50;99.90;;;;;;5086512;28;20024;-80
2021/05/11 00:17:37;;;;;;;1.35;1.20;;;17.50;99.90;;;;;;5086504;28;20036;-80
2021/05/11 00:20:03;;;;;;;2.85;1.48;;;17.50;99.90;;;;;;5090329;28;20032;-81
2021/05/11 00:22:29;;;;;;;2.00;1.17;;;17.50;99.90;;;;;;5090506;28;20451;-80
2021/05/11 00:24:54;;;;;;;1.92;1.38;;;17.50;99.90;;;;;;5089978;28;20115;-80
2021/05/11 00:27:20;;;;;;;6.35;1.30;;;17.50;99.90;;;;;;5086718;28;20556;-80
2021/05/11 00:29:45;;;;;;;4.10;1.30;;;17.50;99.90;;;;;;5092543;28;20023;-81
2021/05/11 00:32:11;;;;;;;2.08;1.58;;;17.40;99.90;;;;;;5086080;28;20025;-81
2021/05/11 00:34:36;;;;;;;1.20;1.10;;;17.50;99.90;;;;;;5092091;28;20028;-81
2021/05/11 00:37:02;;;;;;;1.38;1.23;;;17.50;99.90;;;;;;5085233;28;20020;-81
2021/05/11 00:39:27;;;;;;;1.30;1.20;;;17.50;99.90;;;;;;5091370;28;20077;-81
2021/05/11 00:41:53;;;;;;;1.40;1.30;;;17.40;99.90;;;;;;5090035;28;20118;-80
2021/05/11 00:44:23;;;;;;;2.90;1.40;;;17.40;99.90;;;;;;5084747;28;20029;-81
2021/05/11 00:46:56;;;;;;;1.05;0.95;;;17.50;99.90;;;;;;5089752;28;20306;-81
2021/05/11 00:49:22;;;;;;;4.22;1.27;;;17.50;99.90;;;;;;5083797;28;20024;-81
2021/05/11 00:51:48;;;;;;;2.25;1.23;;;17.40;99.90;;;;;;5088656;28;20448;-81
2021/05/11 00:54:14;;;;;;;6.25;1.10;;;17.40;99.90;;;;;;5087835;28;20036;-81
2021/05/11 00:56:40;;;;;;;2.13;1.33;;;17.30;99.90;;;;;;5083368;28;20065;-81
2021/05/11 00:59:11;;;;;;;1.48;1.17;;;17.30;99.90;;;;;;5089014;28;20032;-80
2021/05/11 01:01:37;;;;;;;1.08;0.98;;;17.30;99.90;;;;;;5083254;28;20061;-80
2021/05/11 01:04:02;;;;;;;1.70;1.30;;;17.20;99.90;;;;;;5086500;28;20101;-81
2021/05/11 01:06:28;;;;;;;1.40;1.30;;;17.30;99.90;;;;;;5087944;28;20378;-81
2021/05/11 01:08:53;;;;;;;1.25;0.98;;;17.30;99.90;;;;;;5090576;28;20149;-80
2021/05/11 01:11:19;;;;;;;1.38;1.27;;;17.20;99.90;;;;;;5087848;28;20024;-81
2021/05/11 01:13:44;;;;;;;1.50;1.40;;;17.20;99.90;;;;;;5086551;28;20032;-81
2021/05/11 01:16:10;;;;;;;1.20;1.10;;;17.20;99.90;;;;;;5089785;28;20604;-80
2021/05/11 01:18:36;;;;;;;2.28;1.45;;;17.20;99.90;;;;;;5089630;28;20032;-81
2021/05/11 01:21:21;;;;;;;3.05;1.42;;;17.20;99.90;;;;;;5080431;28;20232;-81
2021/05/11 01:24:01;;;;;;;0.90;0.90;;;17.20;99.90;;;;;;5088577;28;20024;-80
2021/05/11 01:27:24;;;;;;;1.40;1.15;;;17.10;99.90;;;;;;5088353;28;20505;-80
2021/05/11 01:45:50;;;;;;;2.25;1.10;;;17.10;99.90;;;;;;5081030;28;20035;-80
2021/05/11 01:48:24;;;;;;;1.90;1.38;;;17.00;99.90;;;;;;5089763;28;20032;-81
2021/05/11 01:53:50;;;;;;;3.35;1.40;;;17.10;99.90;;;;;;5083825;28;20032;-80
2021/05/11 01:56:53;;;;;;;1.48;1.02;;;17.10;99.90;;;;;;5087892;28;20043;-80
2021/05/11 02:10:06;;;;;;;3.42;1.10;;;16.90;99.90;;;;;;5085887;28;20035;-81
2021/05/11 02:23:40;;;;;;;2.30;1.35;;;16.80;99.90;;;;;;5086698;28;20066;-80
2021/05/11 02:26:05;;;;;;;2.05;1.60;;;16.80;99.90;;;;;;5084076;28;20064;-80
2021/05/11 02:28:31;;;;;;;2.00;1.38;;;16.80;99.90;;;;;;5087561;28;20016;-81
2021/05/11 02:30:57;;;;;;;1.15;1.00;;;16.80;99.90;;;;;;5085332;28;20024;-81
2021/05/11 02:33:23;;;;;;;2.88;1.70;;;16.80;99.90;;;;;;5088903;28;20023;-81
2021/05/11 02:35:48;;;;;;;2.35;1.50;;;16.80;99.90;;;;;;5089128;28;20032;-80
2021/05/11 02:38:14;;;;;;;1.52;1.40;;;16.80;99.90;;;;;;5088551;28;20085;-80
2021/05/11 02:40:40;;;;;;;2.08;1.13;;;16.80;99.90;;;;;;5088623;28;20024;-80
2021/05/11 02:43:12;;;;;;;2.65;1.40;;;16.70;99.90;;;;;;5083577;28;20056;-80
2021/05/11 02:45:37;;;;;;;2.05;1.52;;;16.70;99.90;;;;;;5086947;28;20477;-81
2021/05/11 02:48:03;;;;;;;1.40;1.30;;;16.60;99.90;;;;;;5088640;28;20020;-81
2021/05/11 02:50:30;;;;;;;2.17;1.23;;;16.60;99.90;;;;;;5088742;28;20050;-81
2021/05/11 02:52:56;;;;;;;1.90;1.30;;;16.50;99.90;;;;;;5089354;28;20528;-81
2021/05/11 02:55:22;;;;;;;2.10;1.50;;;16.50;99.90;;;;;;5086929;28;20036;-81
2021/05/11 02:57:49;;;;;;;1.77;1.33;;;16.50;99.90;;;;;;5087839;28;20032;-81
2021/05/11 03:00:17;;;;;;;4.22;1.80;;;16.50;99.90;;;;;;5081892;28;20032;-80
2021/05/11 03:02:42;;;;;;;1.40;1.30;;;16.40;99.90;;;;;;5078588;28;20074;-81
2021/05/11 03:05:08;;;;;;;1.88;1.50;;;16.40;99.90;;;;;;5082089;28;20024;-81
2021/05/11 03:07:34;;;;;;;5.45;1.48;;;16.40;99.90;;;;;;5081602;28;20077;-81
2021/05/11 03:10:00;;;;;;;1.85;1.50;;;16.40;99.90;;;;;;5086458;28;20031;-81
2021/05/11 03:12:26;;;;;;;1.38;1.27;;;16.40;99.90;;;;;;5087988;28;20035;-81
2021/05/11 03:14:51;;;;;;;2.33;1.20;;;16.30;99.90;;;;;;5083474;28;20020;-80
2021/05/11 03:17:17;;;;;;;2.53;1.42;;;16.30;99.90;;;;;;5084238;28;20066;-81
2021/05/11 03:19:42;;;;;;;4.70;1.65;;;16.30;99.90;;;;;;5089118;28;20032;-81
2021/05/11 03:22:08;;;;;;;2.20;1.48;;;16.20;99.90;;;;;;5086974;28;20398;-81
2021/05/11 03:24:39;;;;;;;5.90;1.65;;;16.30;99.90;;;;;;5087940;28;20020;-81
2021/05/11 03:27:05;;;;;;;2.17;1.43;;;16.20;99.90;;;;;;5086278;28;20032;-81
2021/05/11 03:29:30;;;;;;;4.10;1.20;;;16.30;99.90;;;;;;5084493;28;20035;-81
2021/05/11 03:31:56;;;;;;;3.83;1.40;;;16.20;99.90;;;;;;5086715;28;20379;-81
2021/05/11 03:34:22;;;;;;;5.22;1.42;;;16.20;99.90;;;;;;5084951;28;20526;-81
2021/05/11 03:36:47;;;;;;;2.00;1.40;;;16.30;99.90;;;;;;5085972;28;20028;-81
2021/05/11 03:39:13;;;;;;;2.25;1.52;;;16.20;99.90;;;;;;5086442;28;20036;-81
2021/05/11 03:41:46;;;;;;;4.13;1.60;;;16.20;99.90;;;;;;5085185;28;20052;-81
2021/05/11 03:44:17;;;;;;;3.55;2.15;;;16.20;99.90;;;;;;5086422;28;20035;-81
2021/05/11 03:46:43;;;;;;;5.53;2.00;;;16.10;99.90;;;;;;5084883;28;20043;-81
2021/05/11 03:49:08;;;;;;;4.72;1.45;;;16.10;99.90;;;;;;5088068;28;20463;-82
2021/05/11 03:51:36;;;;;;;2.55;1.50;;;16.10;99.90;;;;;;5079664;28;20036;-83
2021/05/11 03:54:01;;;;;;;4.18;2.08;;;16.10;99.90;;;;;;5084544;28;20035;-81
2021/05/11 03:56:28;;;;;;;2.45;1.70;;;16.00;99.90;;;;;;5084841;28;20114;-81
2021/05/11 03:58:54;;;;;;;2.33;1.90;;;16.00;99.90;;;;;;5088201;28;20363;-81
2021/05/11 04:01:20;;;;;;;2.38;1.90;;;15.90;99.90;;;;;;5079431;28;20028;-81
2021/05/11 04:03:45;;;;;;;2.33;1.85;;;15.90;99.90;;;;;;5087043;28;20187;-81
2021/05/11 04:06:11;;;;;;;2.95;2.08;;;15.80;99.90;;;;;;5087791;28;20077;-81
2021/05/11 04:08:47;;;;;;;4.32;2.65;;;15.80;99.90;;;;;;5082220;28;20026;-80
2021/05/11 04:13:57;;;;;;;3.28;2.20;;;15.80;99.90;;;;;;5084974;28;20109;-81
2021/05/11 04:16:24;;;;;;;2.33;1.92;;;15.80;99.90;;;;;;5079254;28;20547;-81
2021/05/11 04:18:50;;;;;;;5.28;1.90;;;15.80;99.90;;;;;;5085975;28;20071;-81
2021/05/11 04:21:17;;;;;;;3.65;1.88;;;15.90;99.90;;;;;;5087273;28;20703;-71
2021/05/11 04:23:44;;;;;;;5.47;2.42;;;16.00;99.90;;;;;;5083881;28;20131;-74
2021/05/11 04:26:11;;;;;;;2.97;2.60;;;16.00;99.90;;;;;;5082336;28;20093;-74
2021/05/11 04:28:37;;;;;;;4.45;2.40;;;16.10;99.90;;;;;;5084031;28;20482;-74
2021/05/11 04:31:02;;;;;;;2.33;1.90;;;16.10;99.90;;;;;;5081782;28;20063;-75
2021/05/11 04:33:28;;;;;;;4.47;2.40;;;16.30;99.90;;;;;;5085407;28;20027;-76
2021/05/11 04:35:53;;;;;;;5.78;2.50;;;16.50;99.90;;;;;;5086368;28;20213;-76
2021/05/11 04:38:19;;;;;;;2.67;2.05;;;16.70;99.90;;;;;;5085273;28;20032;-76
2021/05/11 04:40:45;;;;;;;5.93;2.45;;;16.70;99.90;;;;;;5079109;28;20553;-78
2021/05/11 04:43:11;;;;;;;7.47;2.53;;;16.80;99.90;;;;;;5085200;28;20063;-76
2021/05/11 04:45:36;;;;;;;5.30;2.22;;;17.00;99.90;;;;;;5084299;28;20103;-75
2021/05/11 04:48:02;;;;;;;2.95;2.35;;;17.20;99.90;;;;;;5087203;28;20046;-76
2021/05/11 04:50:28;;;;;;;7.70;2.30;;;17.20;99.90;;;;;;5081389;28;20036;-77
2021/05/11 04:52:55;;;;;;;5.72;2.38;;;17.30;99.90;;;;;;5083338;28;20020;-77
2021/05/11 04:55:21;;;;;;;2.97;2.08;;;17.40;99.90;;;;;;5086269;28;20029;-78
2021/05/11 04:57:47;;;;;;;7.00;2.25;;;17.40;99.90;;;;;;5086256;28;20725;-72
2021/05/11 05:00:14;;;;;;;4.40;2.58;;;17.50;99.90;;;;;;5080868;28;20462;-73
2021/05/11 05:02:45;;;;;;;3.95;2.70;;;17.60;99.90;;;;;;5085205;28;20032;-74
2021/05/11 05:05:12;;;;;;;4.75;2.50;;;17.60;99.90;;;;;;5086829;28;20028;-76
2021/05/11 05:07:39;;;;;;;7.30;2.70;;;17.70;99.90;;;;;;5087010;28;20501;-74
2021/05/11 05:10:06;;;;;;;5.38;2.75;;;17.70;99.90;;;;;;5089137;28;20032;-73
2021/05/11 05:12:32;;;;;;;3.35;2.30;;;17.70;99.90;;;;;;5089698;28;20074;-72
2021/05/11 05:14:57;;;;;;;3.80;2.20;;;17.70;99.90;;;;;;5087455;28;20040;-73
2021/05/11 05:17:23;;;;;;;6.32;2.95;;;17.70;99.90;;;;;;5088023;28;20062;-73
2021/05/11 05:19:49;;;;;;;6.47;2.50;;;17.80;99.90;;;;;;5087081;28;20492;-74
2021/05/11 05:22:41;;;;;;;4.97;2.60;;;17.80;99.90;;;;;;5087661;28;20024;-72
2021/05/11 05:25:16;;;;;;;4.38;2.92;;;18.00;99.90;;;;;;5084358;28;20027;-73
2021/05/11 05:30:11;;;;;;;6.13;2.50;;;18.10;99.90;;;;;;5090639;28;20534;-72
2021/05/11 05:32:36;;;;;;;11.73;2.72;;;18.10;99.90;;;;;;5089466;28;20031;-73
2021/05/11 05:35:02;;;;;;;5.93;3.13;;;18.20;99.90;;;;;;5086961;28;20029;-73
2021/05/11 05:37:28;;;;;;;4.15;2.72;;;18.30;99.90;;;;;;5090338;28;20470;-73
2021/05/11 05:39:57;;;;;;;5.35;2.60;;;18.40;99.90;;;;;;5090673;28;20024;-73
2021/05/11 05:42:23;;;;;;;3.10;2.47;;;18.50;99.90;;;;;;5090368;28;20036;-72
2021/05/11 05:44:51;;;;;;;3.90;2.47;;;18.60;99.90;;;;;;5085578;28;20081;-71
2021/05/11 05:47:19;;;;;;;3.72;2.10;;;18.80;99.90;;;;;;5079119;28;20229;-72
2021/05/11 05:49:47;;;;;;;5.40;3.00;;;18.90;99.90;;;;;;5085170;28;20028;-73
2021/05/11 05:52:20;;;;;;;3.60;2.40;;;18.90;99.90;;;;;;5081161;28;20040;-73
2021/05/11 05:54:46;;;;;;;4.93;2.38;;;19.00;99.70;;;;;;5089817;28;20461;-73
2021/05/11 05:57:13;;;;;;;6.53;3.03;;;19.20;97.50;;;;;;5090248;28;20364;-73
2021/05/11 05:59:43;;;;;;;3.17;2.42;;;19.30;96.20;;;;;;5084417;28;20031;-73
2021/05/11 06:02:15;;;;;;;6.53;2.55;;;19.20;96.60;;;;;;5083203;28;20028;-73
2021/05/11 06:04:40;;;;;;;8.05;2.47;;;19.20;98.20;;;;;;5089931;28;20682;-73
2021/05/11 06:07:06;;;;;;;7.10;2.65;;;19.20;97.40;;;;;;5088850;28;20122;-73
2021/05/11 06:09:31;;;;;;;5.05;3.38;;;19.20;97.10;;;;;;5089582;28;20406;-73
2021/05/11 06:12:01;;;;;;;8.18;2.65;;;19.30;97.00;;;;;;5087732;28;20016;-73
2021/05/11 06:14:42;;;;;;;9.20;3.65;;;19.20;97.50;;;;;;5078403;28;20034;-73
2021/05/11 06:17:17;;;;;;;;;;;19.30;97.90;;;;;;5089343;28;20060;-73
2021/05/11 06:19:50;;;;;;;7.68;2.63;;;19.30;97.90;;;;;;5086419;28;19928;-73
2021/05/11 06:22:16;;;;;;;5.95;2.75;;;19.40;96.60;;;;;;5088481;28;20024;-73
2021/05/11 06:24:42;;;;;;;4.95;2.88;;;19.40;97.10;;;;;;5086835;28;20028;-73
2021/05/11 06:27:10;;;;;;;5.00;2.92;;;19.50;96.60;;;;;;5086593;28;20032;-73
2021/05/11 06:29:41;;;;;;;4.03;3.20;;;19.50;97.00;;;;;;5088101;28;20055;-77
2021/05/11 06:32:15;;;;;;;4.07;3.00;;;19.50;97.70;;;;;;5087436;28;20480;-75
2021/05/11 06:34:46;;;;;;;4.55;3.03;;;19.60;98.20;;;;;;5085658;28;20032;-75
2021/05/11 06:37:11;;;;;;;5.40;3.25;;;19.70;97.00;;;;;;5087621;28;20555;-76
2021/05/11 06:39:37;;;;;;;6.78;3.10;;;19.80;96.60;;;;;;5089088;28;20026;-76
2021/05/11 06:42:03;;;;;;;3.22;2.63;;;19.80;96.10;;;;;;5086491;28;20314;-73
2021/05/11 06:44:40;;;;;;;4.20;2.72;;;19.80;97.40;;;;;;5088756;28;20035;-73
2021/05/11 06:55:08;;;;;;;12.90;2.95;;;20.10;97.10;;;;;;5086848;28;20031;-74
2021/05/11 06:57:34;;;;;;;4.57;2.63;;;20.20;96.80;;;;;;5087879;28;20066;-74
2021/05/11 07:00:00;;;;;;;4.78;2.72;;;20.20;97.20;;;;;;5076913;28;20088;-77
2021/05/11 07:02:26;;;;;;;3.45;2.80;;;20.20;97.20;;;;;;5084278;28;20497;-77
2021/05/11 07:04:53;;;;;;;5.13;2.70;;;20.20;96.10;;;;;;5085161;28;20050;-76
2021/05/11 07:07:19;;;;;;;5.45;2.58;;;20.30;96.00;;;;;;5082722;28;20025;-85
2021/05/11 07:14:55;;;;;;;4.57;2.60;;;20.40;95.60;;;;;;5074905;28;20580;-75
2021/05/11 07:17:21;;;;;;;3.90;2.80;;;20.40;95.90;;;;;;5082222;28;20024;-77
2021/05/11 07:19:46;;;;;;;5.93;3.10;;;20.40;95.50;;;;;;5084004;28;20020;-77
2021/05/11 07:22:12;;;;;;;4.07;2.90;;;20.30;96.30;;;;;;5074820;28;20398;-76
2021/05/11 07:24:38;;;;;;;4.78;2.58;;;20.20;96.70;;;;;;5085097;28;20097;-75
2021/05/11 07:29:53;;;;;;;10.25;3.03;;;20.20;96.80;;;;;;5085994;28;20031;-76
2021/05/11 07:32:19;;;;;;;4.82;3.00;;;20.20;96.10;;;;;;5081595;28;20036;-73
2021/05/11 07:34:47;;;;;;;6.30;3.60;;;20.30;95.80;;;;;;5085790;28;20355;-74
2021/05/11 07:37:12;;;;;;;7.85;2.80;;;20.40;95.50;;;;;;5085263;28;20078;-75
2021/05/11 07:39:45;;;;;;;4.60;2.83;;;20.40;95.20;;;;;;5086677;28;20058;-76
2021/05/11 07:42:11;;;;;;;10.70;3.08;;;20.50;96.10;;;;;;5083797;28;20036;-76
2021/05/11 07:44:41;;;;;;;5.32;2.80;;;20.70;94.30;;;;;;5086916;28;20028;-74
2021/05/11 07:56:40;;;;;;;10.85;3.75;;;21.10;91.90;;;;;;5081323;28;20579;-75
2021/05/11 08:17:18;;;;;;;13.65;2.50;;;21.70;90.30;;;;;;5082319;28;20065;-76
2021/05/11 08:19:54;;;;;;;7.10;2.90;;;21.80;91.40;;;;;;5086419;28;20107;-75
2021/05/11 08:28:11;;;;;;;5.80;2.05;;;22.40;83.00;;;;;;5076066;28;20035;-75
2021/05/11 08:30:37;;;;;;;6.40;2.38;;;22.70;82.20;;;;;;5076765;28;20036;-75
2021/05/11 08:33:02;;;;;;;6.63;3.13;;;22.80;79.50;;;;;;5080691;28;20039;-75
2021/05/11 08:35:28;;;;;;;4.18;2.45;;;22.90;83.90;;;;;;5079674;28;20528;-74
2021/05/11 08:37:53;;;;;;;4.45;2.60;;;23.10;78.00;;;;;;5078372;28;20040;-75
2021/05/11 08:40:19;;;;;;;4.40;2.80;;;23.10;75.70;;;;;;5086793;28;20482;-76
2021/05/11 08:42:45;;;;;;;3.13;2.28;;;23.20;74.20;;;;;;5085530;28;20028;-77
2021/05/11 08:45:13;;;;;;;3.15;2.15;;;23.20;74.40;;;;;;5089905;28;20081;-74
2021/05/11 08:47:55;;;;;;;2.58;2.00;;;23.30;75.80;;;;;;5079675;28;20020;-75
2021/05/11 08:50:30;;;;;;;5.70;2.10;;;23.40;76.00;;;;;;5084701;28;20068;-76
2021/05/11 09:27:07;;;;;;;5.05;2.83;;;25.00;70.10;;;;;;5081056;28;20035;-76
2021/05/11 09:50:58;;;;;;;8.32;2.40;;;24.90;67.10;;;;;;5087835;28;20035;-83
2021/05/11 10:41:41;;;;;;;4.60;2.90;;;26.50;69.20;;;;;;5086776;28;20394;-83
2021/05/11 10:44:55;;;;;;;3.33;2.42;;;26.50;63.10;;;;;;5088807;28;20052;-84
2021/05/11 10:47:14;;;;;;;5.30;2.83;;;26.70;68.00;;;;;;5080466;28;20398;-83
2021/05/11 10:49:42;;;;;;;20.95;3.85;;;26.80;63.20;;;;;;5087344;28;20024;-85
2021/05/11 10:52:17;;;;;;;4.32;2.78;;;26.70;64.60;;;;;;5087730;28;20086;-86
2021/05/11 11:00:31;;;;;;;3.95;2.72;;;27.20;66.00;;;;;;5079309;28;20047;-84
2021/05/11 11:03:21;;;;;;;5.53;2.72;;;27.30;64.10;;;;;;5088194;28;20107;-83
2021/05/11 11:05:53;;;;;;;10.80;3.10;;;27.20;61.40;;;;;;5083690;28;21955;-85
2021/05/11 11:08:40;;;;;;;7.13;3.20;;;27.00;60.20;;;;;;5079926;28;20102;-83
2021/05/11 11:11:11;;;;;;;8.27;2.78;;;27.00;60.30;;;;;;5085971;28;20482;-86
2021/05/11 11:13:53;;;;;;;7.28;2.92;;;27.10;62.80;;;;;;5086538;28;20025;-85
2021/05/11 11:16:20;;;;;;;7.68;2.83;;;27.50;64.70;;;;;;5086237;28;20331;-84
2021/05/11 11:18:50;;;;;;;4.57;2.80;;;27.80;59.60;;;;;;5087585;28;20126;-85
2021/05/11 11:23:58;;;;;;;5.53;2.72;;;28.30;62.10;;;;;;5086112;28;20028;-86
2021/05/11 11:26:27;;;;;;;3.95;2.40;;;28.30;60.10;;;;;;5086512;28;20102;-85
2021/05/11 11:29:06;;;;;;;4.25;2.67;;;28.60;61.80;;;;;;5088651;28;20020;-85
2021/05/11 11:31:34;;;;;;;7.13;2.65;;;28.80;58.20;;;;;;5084728;28;20077;-85
2021/05/11 11:34:36;;;;;;;6.10;2.65;;;29.20;58.90;;;;;;5085923;28;20130;-78
2021/05/11 11:37:04;;;;;;;6.75;2.47;;;29.60;57.30;;;;;;5086226;28;20020;-85
2021/05/11 11:39:42;;;;;;;3.78;2.67;;;30.20;57.80;;;;;;5088427;28;20024;-86
2021/05/11 11:42:39;;;;;;;6.18;2.85;;;30.50;57.10;;;;;;5087561;28;20161;-84
2021/05/11 11:45:26;;;;;;;6.10;2.80;;;30.80;53.00;;;;;;5086310;28;20040;-85
2021/05/11 11:48:00;;;;;;;4.85;2.60;;;31.50;51.60;;;;;;5083740;28;20028;-85
2021/05/11 11:50:27;;;;;;;3.20;2.80;;;32.10;51.50;;;;;;5087236;28;20455;-85
2021/05/11 11:55:39;;;;;;;4.55;2.72;;;31.80;48.30;;;;;;5078099;28;20016;-85
2021/05/11 11:58:05;;;;;;;3.13;2.30;;;31.70;50.20;;;;;;5087201;28;20032;-86
2021/05/11 12:00:33;;;;;;;4.00;2.85;;;31.30;48.20;;;;;;5075308;28;20453;-87
2021/05/11 12:03:00;;;;;;;5.35;2.97;;;31.50;48.90;;;;;;5086716;28;20089;-86
2021/05/11 12:05:34;;;;;;;4.13;2.45;;;31.80;48.70;;;;;;5087288;28;20028;-82
2021/05/11 12:08:20;;;;;;;2.92;2.40;;;32.10;48.50;;;;;;5076030;28;20498;-82
2021/05/11 12:10:47;;;;;;;8.82;3.08;;;31.80;47.80;;;;;;5083603;28;20085;-75
2021/05/11 12:13:17;;;;;;;2.90;2.58;;;32.10;48.20;;;;;;5083245;28;20020;-78
2021/05/11 12:15:42;;;;;;;3.03;2.53;;;32.20;48.00;;;;;;5091386;28;20028;-82
2021/05/11 12:18:18;;;;;;;4.30;2.53;;;32.10;47.30;;;;;;5089993;28;20024;-77
2021/05/11 12:20:45;;;;;;;9.63;3.00;;;32.00;47.10;;;;;;5088572;28;20549;-80
2021/05/11 12:23:15;;;;;;;3.97;2.85;;;31.70;48.50;;;;;;5090625;28;20063;-80
2021/05/11 12:25:54;;;;;;;4.22;2.72;;;31.60;47.00;;;;;;5092251;28;20031;-85
2021/05/11 12:28:33;;;;;;;5.03;3.13;;;32.60;46.70;;;;;;5089034;28;20036;-79
2021/05/11 12:31:00;;;;;;;3.10;2.53;;;34.00;44.00;;;;;;5091371;28;20036;-78
2021/05/11 12:33:43;;;;;;;4.70;3.33;;;34.70;42.00;;;;;;5091237;28;20024;-74
2021/05/11 12:36:19;;;;;;;4.70;2.58;;;35.30;41.20;;;;;;5091138;28;20059;-75
2021/05/11 12:38:45;;;;;;;4.10;2.92;;;35.70;39.70;;;;;;5087321;28;20081;-76
2021/05/11 12:41:29;;;;;;;5.50;3.00;;;36.20;41.30;;;;;;5088070;28;20394;-83
2021/05/11 12:43:55;;;;;;;5.95;3.38;;;36.70;38.30;;;;;;5090791;28;20093;-81
2021/05/11 12:46:29;;;;;;;3.40;2.95;;;36.60;37.90;;;;;;5091962;28;20032;-80
2021/05/11 12:49:03;;;;;;;12.68;3.58;;;36.70;38.80;;;;;;5088303;28;20125;-83
2021/05/11 12:51:35;;;;;;;5.18;3.17;;;36.20;39.50;;;;;;5091233;28;20042;-81
2021/05/11 12:54:19;;;;;;;7.88;3.25;;;36.00;38.80;;;;;;5090800;28;20032;-80
2021/05/11 12:56:55;;;;;;;12.13;3.40;;;36.10;39.40;;;;;;5079235;28;20032;-83
2021/05/11 12:59:49;;;;;;;10.15;3.58;;;36.40;38.90;;;;;;5087702;28;20029;-80
2021/05/11 13:03:09;;;;;;;5.47;3.28;;;36.90;37.90;;;;;;5084414;28;20115;-80
2021/05/11 13:14:00;;;;;;;10.27;3.83;;;36.80;37.30;;;;;;5090291;28;20043;-82
2021/05/11 13:27:23;;;;;;;7.35;3.30;;;35.70;38.30;;;;;;5077465;28;20038;-80
2021/05/11 13:30:10;;;;;;;4.20;3.05;;;35.20;39.30;;;;;;5089791;28;20024;-79
2021/05/11 13:32:49;;;;;;;9.75;3.40;;;35.40;40.20;;;;;;5091624;28;20432;-79
2021/05/11 13:35:14;;;;;;;4.93;3.75;;;36.10;38.30;;;;;;5090240;28;20047;-84
2021/05/11 13:37:40;;;;;;;4.40;3.33;;;36.60;38.20;;;;;;5091324;28;20092;-84
2021/05/11 13:40:06;;;;;;;3.33;3.03;;;36.80;38.00;;;;;;5088752;28;20493;-80
2021/05/11 13:42:32;;;;;;;4.60;3.28;;;37.00;37.20;;;;;;5089774;28;20031;-78
2021/05/11 13:44:57;;;;;;;5.97;2.90;;;37.10;38.40;;;;;;5089859;28;20026;-78
2021/05/11 13:47:23;;;;;;;6.13;3.20;;;36.90;37.20;;;;;;5086187;28;20382;-77
2021/05/11 13:49:53;;;;;;;6.97;3.30;;;36.60;39.20;;;;;;5087124;28;20538;-77
2021/05/11 13:52:19;;;;;;;3.85;2.90;;;36.70;38.10;;;;;;5088840;28;20712;-77
2021/05/11 13:54:48;;;;;;;3.75;2.80;;;36.90;37.20;;;;;;5089747;28;20032;-77
2021/05/11 13:57:27;;;;;;;8.63;3.85;;;36.80;36.70;;;;;;5090488;28;20416;-77
2021/05/11 14:02:48;;;;;;;4.28;3.10;;;36.10;38.50;;;;;;5087627;28;20046;-87
2021/05/11 14:05:16;;;;;;;5.55;2.97;;;35.50;38.60;;;;;;5088442;28;20024;-87
2021/05/11 14:07:43;;;;;;;4.22;3.03;;;35.70;40.30;;;;;;5080324;28;20194;-86
2021/05/11 14:10:09;;;;;;;6.72;4.03;;;35.60;38.00;;;;;;5090365;28;20032;-86
2021/05/11 14:12:35;;;;;;;4.78;3.20;;;35.50;37.70;;;;;;5089461;28;20032;-86
2021/05/11 14:15:01;;;;;;;3.88;3.47;;;35.30;38.90;;;;;;5090210;28;20035;-88
2021/05/11 14:17:26;;;;;;;4.43;2.95;;;35.30;38.80;;;;;;5088215;28;20028;-88
2021/05/11 14:19:52;;;;;;;4.68;2.90;;;35.60;38.90;;;;;;5087629;28;20024;-87
2021/05/11 14:22:20;;;;;;;6.03;3.15;;;36.10;38.80;;;;;;5090152;28;20032;-87
2021/05/11 14:24:47;;;;;;;5.95;3.17;;;36.50;39.40;;;;;;5086756;28;20024;-88
2021/05/11 14:27:16;;;;;;;4.93;2.95;;;36.70;38.20;;;;;;5079958;28;20372;-77
2021/05/11 14:29:43;;;;;;;10.38;3.30;;;36.70;36.40;;;;;;5085668;28;20035;-76
2021/05/11 14:32:09;;;;;;;8.25;3.58;;;36.90;37.20;;;;;;5086910;28;20056;-77
2021/05/11 14:34:34;;;;;;;4.85;3.22;;;37.20;35.70;;;;;;5088855;28;20052;-77
2021/05/11 14:37:00;;;;;;;3.75;3.05;;;37.40;34.90;;;;;;5086640;28;20032;-78
2021/05/11 14:39:25;;;;;;;5.10;3.72;;;37.40;34.70;;;;;;5084619;28;20020;-77
2021/05/11 14:41:54;;;;;;;9.27;3.38;;;37.30;35.40;;;;;;5087962;28;20031;-77
2021/05/11 14:44:23;;;;;;;5.57;3.58;;;37.10;36.80;;;;;;5088904;28;20043;-76
2021/05/11 14:46:50;;;;;;;4.60;3.65;;;36.70;36.00;;;;;;5085746;28;20055;-77
2021/05/11 14:49:16;;;;;;;7.82;3.20;;;36.80;36.70;;;;;;5087656;28;20487;-77
2021/05/11 14:51:42;;;;;;;4.60;3.28;;;36.70;38.20;;;;;;5088326;28;20051;-77
2021/05/11 14:54:07;;;;;;;3.22;2.78;;;36.60;35.90;;;;;;5084192;28;20028;-76
2021/05/11 14:56:38;;;;;;;7.40;3.72;;;36.80;35.70;;;;;;5087920;28;20070;-77
2021/05/11 14:59:03;;;;;;;5.20;3.22;;;36.60;35.60;;;;;;5088174;28;20096;-77
2021/05/11 15:01:29;;;;;;;5.38;3.58;;;36.70;36.20;;;;;;5087823;28;20099;-76
2021/05/11 15:03:54;;;;;;;5.95;3.65;;;36.90;38.60;;;;;;5082390;28;20495;-77
2021/05/11 15:06:20;;;;;;;6.05;3.78;;;36.80;37.80;;;;;;5088056;28;20359;-77
2021/05/11 15:08:45;;;;;;;12.68;3.55;;;36.40;37.70;;;;;;5083199;28;20078;-77
2021/05/11 15:11:11;;;;;;;8.43;3.58;;;36.20;38.30;;;;;;5082991;28;20025;-76
2021/05/11 15:13:38;;;;;;;3.58;3.25;;;35.90;39.50;;;;;;5081681;28;20488;-80
2021/05/11 15:16:07;;;;;;;5.15;3.50;;;35.40;40.20;;;;;;5085702;28;20040;-78
2021/05/11 15:18:32;;;;;;;4.00;3.28;;;35.20;40.10;;;;;;5088306;28;20059;-79
2021/05/11 15:20:57;;;;;;;4.88;3.60;;;35.10;41.10;;;;;;5086067;28;20047;-81
2021/05/11 15:23:23;;;;;;;8.20;3.85;;;35.20;40.80;;;;;;5089277;28;20474;-80
2021/05/11 15:25:48;;;;;;;5.47;4.07;;;35.10;40.90;;;;;;5086699;28;20171;-80
2021/05/11 15:28:14;;;;;;;4.72;3.17;;;34.80;41.70;;;;;;5087370;28;20032;-80
2021/05/11 15:30:40;;;;;;;7.07;3.63;;;34.40;42.80;;;;;;5087477;28;20094;-81
2021/05/11 15:33:08;;;;;;;3.95;3.15;;;33.70;44.20;;;;;;5084910;28;20032;-80
2021/05/11 15:35:35;;;;;;;4.47;3.72;;;33.70;44.60;;;;;;5082442;28;20032;-79
2021/05/11 15:38:03;;;;;;;5.07;3.08;;;33.90;43.70;;;;;;5077960;28;20035;-80
2021/05/11 15:40:32;;;;;;;4.53;3.65;;;33.40;44.70;;;;;;5085670;28;20024;-80
2021/05/11 15:42:57;;;;;;;4.47;3.30;;;33.20;45.00;;;;;;5082982;28;20027;-79
2021/05/11 15:45:24;;;;;;;4.35;3.05;;;33.40;44.70;;;;;;5084205;28;20036;-78
2021/05/11 15:47:53;;;;;;;6.32;3.30;;;33.60;44.10;;;;;;5086061;28;20028;-79
2021/05/11 15:50:28;;;;;;;3.47;2.97;;;33.80;43.80;;;;;;5088046;28;20024;-79
2021/05/11 15:52:56;;;;;;;5.60;3.00;;;33.90;43.80;;;;;;5084919;28;20056;-81
2021/05/11 15:55:23;;;;;;;8.27;3.83;;;33.40;44.70;;;;;;5087961;28;20059;-79
2021/05/11 15:57:50;;;;;;;5.95;3.50;;;32.90;45.30;;;;;;5085963;28;20027;-80
2021/05/11 16:00:16;;;;;;;8.90;3.70;;;32.30;46.20;;;;;;5085151;28;20031;-79
2021/05/11 16:02:41;;;;;;;6.85;3.25;;;31.50;47.40;;;;;;5081176;28;20119;-80
2021/05/11 16:05:07;;;;;;;4.95;3.40;;;30.80;49.20;;;;;;5086124;28;20115;-81
2021/05/11 16:07:34;;;;;;;13.85;3.58;;;30.30;50.70;;;;;;5081114;28;20033;-81
2021/05/11 16:10:02;;;;;;;4.10;3.08;;;30.00;50.70;;;;;;5084487;28;20028;-78
2021/05/11 16:12:28;;;;;;;4.53;3.38;;;29.70;49.80;;;;;;5086442;28;20065;-79
2021/05/11 16:14:53;;;;;;;3.20;2.83;;;29.20;52.40;;;;;;5086963;28;20024;-80
2021/05/11 16:17:19;;;;;;;8.02;3.38;;;29.00;53.70;;;;;;5075808;28;20478;-78
2021/05/11 16:19:48;;;;;;;5.90;3.17;;;29.00;53.70;;;;;;5077116;28;20027;-78
2021/05/11 16:22:14;;;;;;;8.60;3.65;;;29.00;54.40;;;;;;5077395;28;20386;-78
2021/05/11 16:24:40;;;;;;;5.72;3.55;;;28.80;55.00;;;;;;5078634;28;20086;-78
2021/05/11 16:27:05;;;;;;;9.95;3.50;;;28.70;54.00;;;;;;5077700;28;20482;-78
2021/05/11 16:29:31;;;;;;;6.28;3.38;;;28.90;53.70;;;;;;5079560;28;20035;-78
2021/05/11 16:31:58;;;;;;;4.18;3.40;;;29.00;54.60;;;;;;5078403;28;20494;-79
2021/05/11 16:34:24;;;;;;;4.20;3.28;;;29.00;53.60;;;;;;5076504;28;20024;-77
2021/05/11 16:36:49;;;;;;;8.25;4.10;;;28.80;54.40;;;;;;5078194;28;20020;-79
2021/05/11 16:39:15;;;;;;;7.60;4.00;;;28.50;54.40;;;;;;5077743;28;20052;-78
2021/05/11 16:41:40;;;;;;;10.70;4.80;;;28.30;55.10;;;;;;5077842;28;20032;-79
2021/05/11 16:44:06;;;;;;;7.53;5.00;;;28.20;56.10;;;;;;5076832;28;20064;-78
2021/05/11 16:46:34;;;;;;;8.55;3.55;;;28.00;55.50;;;;;;5076990;28;20027;-78